sensor_id;sensor_type;location;lat;lon;timestamp;temperature;humidity
14875;DHT22;7529;48.170;17.138;2022-07-06T00:00:38;17.30;86.20
14875;DHT22;7529;48.170;17.138;2022-07-06T00:04:49;17.30;85.90
14875;DHT22;7529;48.170;17.138;2022-07-06T00:09:01;17.20;85.70
14875;DHT22;7529;48.170;17.138;2022-07-06T00:13:13;17.30;85.60
14875;DHT22;7529;48.170;17.138;2022-07-06T00:17:25;17.20;85.50
14875;DHT22;7529;48.170;17.138;2022-07-06T00:21:36;17.20;85.30
14875;DHT22;7529;48.170;17.138;2022-07-06T00:25:48;17.10;85.30
14875;DHT22;7529;48.170;17.138;2022-07-06T00:30:00;17.10;85.50
14875;DHT22;7529;48.170;17.138;2022-07-06T00:34:12;17.10;85.40
14875;DHT22;7529;48.170;17.138;2022-07-06T00:38:25;17.00;85.30
14875;DHT22;7529;48.170;17.138;2022-07-06T00:42:41;17.00;85.30
14875;DHT22;7529;48.170;17.138;2022-07-06T00:46:53;17.00;85.50
14875;DHT22;7529;48.170;17.138;2022-07-06T00:51:05;17.00;85.40
14875;DHT22;7529;48.170;17.138;2022-07-06T00:55:25;17.00;85.40
14875;DHT22;7529;48.170;17.138;2022-07-06T00:59:38;17.00;85.10
14875;DHT22;7529;48.170;17.138;2022-07-06T01:03:50;17.00;84.90
14875;DHT22;7529;48.170;17.138;2022-07-06T01:08:02;17.00;84.80
14875;DHT22;7529;48.170;17.138;2022-07-06T01:12:13;17.00;84.70
14875;DHT22;7529;48.170;17.138;2022-07-06T01:16:25;17.10;84.40
14875;DHT22;7529;48.170;17.138;2022-07-06T01:20:37;17.10;84.00
14875;DHT22;7529;48.170;17.138;2022-07-06T01:24:48;17.10;84.00
14875;DHT22;7529;48.170;17.138;2022-07-06T01:29:00;17.10;83.80
14875;DHT22;7529;48.170;17.138;2022-07-06T01:33:12;17.10;83.50
14875;DHT22;7529;48.170;17.138;2022-07-06T01:37:23;17.10;83.20
14875;DHT22;7529;48.170;17.138;2022-07-06T01:41:35;17.00;83.20
14875;DHT22;7529;48.170;17.138;2022-07-06T01:45:46;17.00;83.20
14875;DHT22;7529;48.170;17.138;2022-07-06T01:50:00;17.00;82.90
14875;DHT22;7529;48.170;17.138;2022-07-06T01:54:15;17.10;82.80
14875;DHT22;7529;48.170;17.138;2022-07-06T01:58:27;17.00;82.70
14875;DHT22;7529;48.170;17.138;2022-07-06T02:02:38;17.10;82.70
14875;DHT22;7529;48.170;17.138;2022-07-06T02:06:50;17.10;82.40
14875;DHT22;7529;48.170;17.138;2022-07-06T02:11:04;17.20;82.10
14875;DHT22;7529;48.170;17.138;2022-07-06T02:15:18;17.20;81.80
14875;DHT22;7529;48.170;17.138;2022-07-06T02:19:30;17.30;81.70
14875;DHT22;7529;48.170;17.138;2022-07-06T02:23:41;17.30;81.80
14875;DHT22;7529;48.170;17.138;2022-07-06T02:27:53;17.20;81.80
14875;DHT22;7529;48.170;17.138;2022-07-06T02:32:05;17.20;81.70
14875;DHT22;7529;48.170;17.138;2022-07-06T02:36:17;17.30;82.10
14875;DHT22;7529;48.170;17.138;2022-07-06T02:40:29;17.20;81.70
14875;DHT22;7529;48.170;17.138;2022-07-06T02:44:40;17.30;81.60
14875;DHT22;7529;48.170;17.138;2022-07-06T02:48:52;17.30;81.40
14875;DHT22;7529;48.170;17.138;2022-07-06T02:53:03;17.40;81.30
14875;DHT22;7529;48.170;17.138;2022-07-06T02:57:17;17.30;81.20
14875;DHT22;7529;48.170;17.138;2022-07-06T03:01:29;17.40;81.00
14875;DHT22;7529;48.170;17.138;2022-07-06T03:05:40;17.40;80.80
14875;DHT22;7529;48.170;17.138;2022-07-06T03:09:52;17.50;81.00
14875;DHT22;7529;48.170;17.138;2022-07-06T03:14:05;17.60;80.10
14875;DHT22;7529;48.170;17.138;2022-07-06T03:18:19;17.70;79.60
14875;DHT22;7529;48.170;17.138;2022-07-06T03:22:31;17.90;78.80
14875;DHT22;7529;48.170;17.138;2022-07-06T03:26:44;18.10;78.40
14875;DHT22;7529;48.170;17.138;2022-07-06T03:30:57;18.20;77.70
14875;DHT22;7529;48.170;17.138;2022-07-06T03:35:09;18.30;77.20
14875;DHT22;7529;48.170;17.138;2022-07-06T03:39:20;18.30;76.60
14875;DHT22;7529;48.170;17.138;2022-07-06T03:43:32;18.30;76.10
14875;DHT22;7529;48.170;17.138;2022-07-06T03:47:44;18.40;75.30
14875;DHT22;7529;48.170;17.138;2022-07-06T03:51:56;18.50;74.40
14875;DHT22;7529;48.170;17.138;2022-07-06T03:56:08;18.50;74.10
14875;DHT22;7529;48.170;17.138;2022-07-06T04:00:39;18.50;74.20
14875;DHT22;7529;48.170;17.138;2022-07-06T04:04:56;18.40;74.00
14875;DHT22;7529;48.170;17.138;2022-07-06T04:09:07;18.50;73.50
14875;DHT22;7529;48.170;17.138;2022-07-06T04:13:21;18.40;73.30
14875;DHT22;7529;48.170;17.138;2022-07-06T04:17:33;18.40;73.40
14875;DHT22;7529;48.170;17.138;2022-07-06T04:22:04;18.40;73.10
14875;DHT22;7529;48.170;17.138;2022-07-06T04:26:17;18.40;73.00
14875;DHT22;7529;48.170;17.138;2022-07-06T04:30:29;18.40;72.80
14875;DHT22;7529;48.170;17.138;2022-07-06T04:34:41;18.50;72.70
14875;DHT22;7529;48.170;17.138;2022-07-06T04:38:53;18.50;72.70
14875;DHT22;7529;48.170;17.138;2022-07-06T04:43:05;18.50;72.60
14875;DHT22;7529;48.170;17.138;2022-07-06T04:47:18;18.60;72.60
14875;DHT22;7529;48.170;17.138;2022-07-06T04:51:30;19.70;72.50
14875;DHT22;7529;48.170;17.138;2022-07-06T04:55:43;21.90;70.00
14875;DHT22;7529;48.170;17.138;2022-07-06T04:59:55;22.30;68.70
14875;DHT22;7529;48.170;17.138;2022-07-06T05:04:08;22.90;67.00
14875;DHT22;7529;48.170;17.138;2022-07-06T05:08:20;22.60;65.90
14875;DHT22;7529;48.170;17.138;2022-07-06T05:12:34;22.10;65.50
14875;DHT22;7529;48.170;17.138;2022-07-06T05:16:47;21.30;65.60
14875;DHT22;7529;48.170;17.138;2022-07-06T05:21:01;20.80;65.90
14875;DHT22;7529;48.170;17.138;2022-07-06T05:25:13;20.50;66.10
14875;DHT22;7529;48.170;17.138;2022-07-06T05:29:26;20.40;66.40
14875;DHT22;7529;48.170;17.138;2022-07-06T05:33:38;20.50;66.50
14875;DHT22;7529;48.170;17.138;2022-07-06T05:37:50;20.50;66.50
14875;DHT22;7529;48.170;17.138;2022-07-06T05:42:02;20.60;66.30
14875;DHT22;7529;48.170;17.138;2022-07-06T05:46:18;20.60;66.20
14875;DHT22;7529;48.170;17.138;2022-07-06T05:50:30;20.60;66.30
14875;DHT22;7529;48.170;17.138;2022-07-06T05:54:43;20.50;66.20
14875;DHT22;7529;48.170;17.138;2022-07-06T05:58:55;20.50;66.30
14875;DHT22;7529;48.170;17.138;2022-07-06T06:03:08;20.30;66.40
14875;DHT22;7529;48.170;17.138;2022-07-06T06:07:20;20.30;66.60
14875;DHT22;7529;48.170;17.138;2022-07-06T06:11:31;20.30;66.40
14875;DHT22;7529;48.170;17.138;2022-07-06T06:15:44;20.50;66.10
14875;DHT22;7529;48.170;17.138;2022-07-06T06:19:57;20.60;66.00
14875;DHT22;7529;48.170;17.138;2022-07-06T06:24:09;20.70;66.00
14875;DHT22;7529;48.170;17.138;2022-07-06T06:28:21;20.80;65.70
14875;DHT22;7529;48.170;17.138;2022-07-06T06:32:32;20.90;65.60
14875;DHT22;7529;48.170;17.138;2022-07-06T06:36:44;21.10;65.40
14875;DHT22;7529;48.170;17.138;2022-07-06T06:40:56;21.30;64.50
14875;DHT22;7529;48.170;17.138;2022-07-06T06:45:09;21.50;64.40
14875;DHT22;7529;48.170;17.138;2022-07-06T06:49:20;21.70;63.60
14875;DHT22;7529;48.170;17.138;2022-07-06T06:53:32;21.80;62.40
14875;DHT22;7529;48.170;17.138;2022-07-06T06:57:44;22.00;62.20
14875;DHT22;7529;48.170;17.138;2022-07-06T07:01:56;22.20;62.30
14875;DHT22;7529;48.170;17.138;2022-07-06T07:06:08;22.70;61.70
14875;DHT22;7529;48.170;17.138;2022-07-06T07:10:19;23.60;60.90
14875;DHT22;7529;48.170;17.138;2022-07-06T07:14:32;24.10;60.20
14875;DHT22;7529;48.170;17.138;2022-07-06T07:18:43;23.90;60.00
14875;DHT22;7529;48.170;17.138;2022-07-06T07:22:56;23.70;59.90
14875;DHT22;7529;48.170;17.138;2022-07-06T07:27:08;23.40;60.10
14875;DHT22;7529;48.170;17.138;2022-07-06T07:31:20;23.10;60.50
14875;DHT22;7529;48.170;17.138;2022-07-06T07:35:32;23.10;60.90
14875;DHT22;7529;48.170;17.138;2022-07-06T07:39:44;22.90;60.90
14875;DHT22;7529;48.170;17.138;2022-07-06T07:43:56;22.90;61.10
14875;DHT22;7529;48.170;17.138;2022-07-06T07:48:07;23.00;61.10
14875;DHT22;7529;48.170;17.138;2022-07-06T07:52:19;23.10;61.00
14875;DHT22;7529;48.170;17.138;2022-07-06T07:56:30;23.30;61.00
14875;DHT22;7529;48.170;17.138;2022-07-06T08:00:42;23.40;60.70
14875;DHT22;7529;48.170;17.138;2022-07-06T08:04:53;23.60;60.40
14875;DHT22;7529;48.170;17.138;2022-07-06T08:09:05;23.70;60.20
14875;DHT22;7529;48.170;17.138;2022-07-06T08:13:18;23.80;59.90
14875;DHT22;7529;48.170;17.138;2022-07-06T08:17:30;24.10;59.80
14875;DHT22;7529;48.170;17.138;2022-07-06T08:21:42;24.30;59.70
14875;DHT22;7529;48.170;17.138;2022-07-06T08:25:54;25.10;59.00
14875;DHT22;7529;48.170;17.138;2022-07-06T08:30:06;26.10;58.10
14875;DHT22;7529;48.170;17.138;2022-07-06T08:34:18;26.40;57.30
14875;DHT22;7529;48.170;17.138;2022-07-06T08:38:29;26.40;57.30
14875;DHT22;7529;48.170;17.138;2022-07-06T08:42:42;26.10;57.20
14875;DHT22;7529;48.170;17.138;2022-07-06T08:46:57;26.10;57.20
14875;DHT22;7529;48.170;17.138;2022-07-06T08:51:13;26.80;56.60
14875;DHT22;7529;48.170;17.138;2022-07-06T08:55:26;27.20;56.30
14875;DHT22;7529;48.170;17.138;2022-07-06T08:59:39;27.70;55.50
14875;DHT22;7529;48.170;17.138;2022-07-06T09:03:50;28.40;55.00
14875;DHT22;7529;48.170;17.138;2022-07-06T09:08:02;30.60;52.40
14875;DHT22;7529;48.170;17.138;2022-07-06T09:12:14;30.80;51.30
14875;DHT22;7529;48.170;17.138;2022-07-06T09:16:28;29.90;52.10
14875;DHT22;7529;48.170;17.138;2022-07-06T09:20:40;30.10;51.80
14875;DHT22;7529;48.170;17.138;2022-07-06T09:24:53;29.80;51.80
14875;DHT22;7529;48.170;17.138;2022-07-06T09:29:13;28.80;51.90
14875;DHT22;7529;48.170;17.138;2022-07-06T09:33:27;31.80;50.60
14875;DHT22;7529;48.170;17.138;2022-07-06T09:58:52;37.50;47.50
14875;DHT22;7529;48.170;17.138;2022-07-06T10:54:04;44.90;39.00
14875;DHT22;7529;48.170;17.138;2022-07-06T10:58:41;46.00;28.60
14875;DHT22;7529;48.170;17.138;2022-07-06T11:02:56;40.90;29.50
14875;DHT22;7529;48.170;17.138;2022-07-06T11:07:16;37.40;31.20
14875;DHT22;7529;48.170;17.138;2022-07-06T11:15:49;33.50;32.90
14875;DHT22;7529;48.170;17.138;2022-07-06T11:20:11;33.00;33.50
14875;DHT22;7529;48.170;17.138;2022-07-06T11:24:31;32.40;33.80
14875;DHT22;7529;48.170;17.138;2022-07-06T11:28:46;32.00;34.20
14875;DHT22;7529;48.170;17.138;2022-07-06T11:32:59;32.60;34.30
14875;DHT22;7529;48.170;17.138;2022-07-06T12:02:59;41.10;30.00
14875;DHT22;7529;48.170;17.138;2022-07-06T12:07:14;43.10;26.80
14875;DHT22;7529;48.170;17.138;2022-07-06T12:11:28;38.30;28.70
14875;DHT22;7529;48.170;17.138;2022-07-06T12:15:41;35.30;29.80
14875;DHT22;7529;48.170;17.138;2022-07-06T12:19:54;33.30;30.40
14875;DHT22;7529;48.170;17.138;2022-07-06T12:24:07;33.70;30.70
14875;DHT22;7529;48.170;17.138;2022-07-06T12:36:56;40.70;28.70
14875;DHT22;7529;48.170;17.138;2022-07-06T12:41:09;41.50;27.70
14875;DHT22;7529;48.170;17.138;2022-07-06T12:45:26;39.50;28.20
14875;DHT22;7529;48.170;17.138;2022-07-06T12:49:39;38.30;28.50
14875;DHT22;7529;48.170;17.138;2022-07-06T12:53:51;36.60;29.20
14875;DHT22;7529;48.170;17.138;2022-07-06T12:58:03;36.90;28.80
14875;DHT22;7529;48.170;17.138;2022-07-06T13:02:30;34.90;29.50
14875;DHT22;7529;48.170;17.138;2022-07-06T13:06:49;33.10;30.80
14875;DHT22;7529;48.170;17.138;2022-07-06T13:11:00;38.00;29.10
14875;DHT22;7529;48.170;17.138;2022-07-06T13:15:13;41.40;28.00
14875;DHT22;7529;48.170;17.138;2022-07-06T13:19:25;37.00;29.40
14875;DHT22;7529;48.170;17.138;2022-07-06T13:23:36;34.40;30.50
14875;DHT22;7529;48.170;17.138;2022-07-06T13:27:48;34.30;30.70
14875;DHT22;7529;48.170;17.138;2022-07-06T13:32:03;33.40;31.40
14875;DHT22;7529;48.170;17.138;2022-07-06T13:36:15;33.40;31.50
14875;DHT22;7529;48.170;17.138;2022-07-06T13:40:27;32.20;32.20
14875;DHT22;7529;48.170;17.138;2022-07-06T13:44:38;33.50;31.60
14875;DHT22;7529;48.170;17.138;2022-07-06T13:48:50;38.60;29.80
14875;DHT22;7529;48.170;17.138;2022-07-06T13:53:02;42.50;28.60
14875;DHT22;7529;48.170;17.138;2022-07-06T13:57:14;44.10;28.00
14875;DHT22;7529;48.170;17.138;2022-07-06T14:01:25;44.60;27.60
14875;DHT22;7529;48.170;17.138;2022-07-06T14:05:37;46.00;27.10
14875;DHT22;7529;48.170;17.138;2022-07-06T14:09:49;41.70;27.80
14875;DHT22;7529;48.170;17.138;2022-07-06T14:14:03;37.20;29.00
14875;DHT22;7529;48.170;17.138;2022-07-06T14:18:17;39.30;28.40
14875;DHT22;7529;48.170;17.138;2022-07-06T14:22:30;38.40;28.50
14875;DHT22;7529;48.170;17.138;2022-07-06T14:26:42;38.50;28.40
14875;DHT22;7529;48.170;17.138;2022-07-06T14:30:54;39.80;28.10
14875;DHT22;7529;48.170;17.138;2022-07-06T14:35:06;37.10;28.70
14875;DHT22;7529;48.170;17.138;2022-07-06T14:39:18;35.00;29.30
14875;DHT22;7529;48.170;17.138;2022-07-06T14:43:30;33.60;30.00
14875;DHT22;7529;48.170;17.138;2022-07-06T14:47:42;33.80;29.80
14875;DHT22;7529;48.170;17.138;2022-07-06T14:51:53;36.10;29.10
14875;DHT22;7529;48.170;17.138;2022-07-06T14:56:05;39.30;28.00
14875;DHT22;7529;48.170;17.138;2022-07-06T15:00:17;40.60;27.60
14875;DHT22;7529;48.170;17.138;2022-07-06T15:04:29;41.80;27.20
14875;DHT22;7529;48.170;17.138;2022-07-06T15:08:41;41.10;27.30
14875;DHT22;7529;48.170;17.138;2022-07-06T15:12:52;37.20;28.40
14875;DHT22;7529;48.170;17.138;2022-07-06T15:17:04;34.30;29.50
14875;DHT22;7529;48.170;17.138;2022-07-06T15:21:18;32.90;30.00
14875;DHT22;7529;48.170;17.138;2022-07-06T15:25:29;31.70;30.30
14875;DHT22;7529;48.170;17.138;2022-07-06T15:29:44;30.90;30.80
14875;DHT22;7529;48.170;17.138;2022-07-06T15:33:56;29.90;31.30
14875;DHT22;7529;48.170;17.138;2022-07-06T15:38:07;29.10;31.90
14875;DHT22;7529;48.170;17.138;2022-07-06T15:42:21;28.50;32.30
14875;DHT22;7529;48.170;17.138;2022-07-06T15:46:33;28.10;32.60
14875;DHT22;7529;48.170;17.138;2022-07-06T15:50:45;27.80;33.00
14875;DHT22;7529;48.170;17.138;2022-07-06T15:54:57;27.60;33.20
14875;DHT22;7529;48.170;17.138;2022-07-06T15:59:09;29.70;32.40
14875;DHT22;7529;48.170;17.138;2022-07-06T16:03:20;31.40;31.40
14875;DHT22;7529;48.170;17.138;2022-07-06T16:07:35;30.60;32.00
14875;DHT22;7529;48.170;17.138;2022-07-06T16:11:47;29.50;32.70
14875;DHT22;7529;48.170;17.138;2022-07-06T16:15:58;28.70;33.20
14875;DHT22;7529;48.170;17.138;2022-07-06T16:20:11;28.40;33.50
14875;DHT22;7529;48.170;17.138;2022-07-06T16:24:24;28.40;33.70
14875;DHT22;7529;48.170;17.138;2022-07-06T16:28:36;29.40;33.30
14875;DHT22;7529;48.170;17.138;2022-07-06T16:32:47;32.40;31.50
14875;DHT22;7529;48.170;17.138;2022-07-06T16:37:02;33.70;30.80
14875;DHT22;7529;48.170;17.138;2022-07-06T16:41:14;34.70;30.30
14875;DHT22;7529;48.170;17.138;2022-07-06T16:45:26;34.40;30.40
14875;DHT22;7529;48.170;17.138;2022-07-06T16:49:37;34.00;30.50
14875;DHT22;7529;48.170;17.138;2022-07-06T16:53:50;33.60;30.60
14875;DHT22;7529;48.170;17.138;2022-07-06T16:58:01;33.30;30.70
14875;DHT22;7529;48.170;17.138;2022-07-06T17:02:16;32.90;31.00
14875;DHT22;7529;48.170;17.138;2022-07-06T17:06:28;32.30;31.40
14875;DHT22;7529;48.170;17.138;2022-07-06T17:10:39;31.80;31.70
14875;DHT22;7529;48.170;17.138;2022-07-06T17:14:51;31.40;31.90
14875;DHT22;7529;48.170;17.138;2022-07-06T17:19:03;31.10;32.20
14875;DHT22;7529;48.170;17.138;2022-07-06T17:23:14;30.60;33.10
14875;DHT22;7529;48.170;17.138;2022-07-06T17:27:26;29.40;33.10
14875;DHT22;7529;48.170;17.138;2022-07-06T17:31:38;27.90;34.30
14875;DHT22;7529;48.170;17.138;2022-07-06T17:35:49;26.90;35.00
14875;DHT22;7529;48.170;17.138;2022-07-06T17:40:01;26.40;35.50
14875;DHT22;7529;48.170;17.138;2022-07-06T17:44:13;26.20;35.70
14875;DHT22;7529;48.170;17.138;2022-07-06T17:48:24;26.00;36.00
14875;DHT22;7529;48.170;17.138;2022-07-06T17:52:36;25.90;36.30
14875;DHT22;7529;48.170;17.138;2022-07-06T17:56:48;25.60;36.60
14875;DHT22;7529;48.170;17.138;2022-07-06T18:01:00;25.20;37.00
14875;DHT22;7529;48.170;17.138;2022-07-06T18:05:12;24.90;37.40
14875;DHT22;7529;48.170;17.138;2022-07-06T18:09:24;24.70;37.60
14875;DHT22;7529;48.170;17.138;2022-07-06T18:13:36;24.50;37.80
14875;DHT22;7529;48.170;17.138;2022-07-06T18:17:47;24.50;38.10
14875;DHT22;7529;48.170;17.138;2022-07-06T18:22:00;24.30;38.20
14875;DHT22;7529;48.170;17.138;2022-07-06T18:26:12;24.20;38.50
14875;DHT22;7529;48.170;17.138;2022-07-06T18:30:24;24.00;38.70
14875;DHT22;7529;48.170;17.138;2022-07-06T18:34:36;23.70;39.10
14875;DHT22;7529;48.170;17.138;2022-07-06T18:38:47;23.50;39.40
14875;DHT22;7529;48.170;17.138;2022-07-06T18:42:59;23.20;39.70
14875;DHT22;7529;48.170;17.138;2022-07-06T18:47:11;23.00;40.20
14875;DHT22;7529;48.170;17.138;2022-07-06T18:51:23;22.70;40.50
14875;DHT22;7529;48.170;17.138;2022-07-06T18:55:35;22.40;40.80
14875;DHT22;7529;48.170;17.138;2022-07-06T18:59:47;22.10;41.00
14875;DHT22;7529;48.170;17.138;2022-07-06T19:03:58;21.90;41.40
14875;DHT22;7529;48.170;17.138;2022-07-06T19:08:11;21.60;41.60
14875;DHT22;7529;48.170;17.138;2022-07-06T19:12:22;21.40;41.90
14875;DHT22;7529;48.170;17.138;2022-07-06T19:16:34;21.20;42.00
14875;DHT22;7529;48.170;17.138;2022-07-06T19:20:46;21.10;42.10
14875;DHT22;7529;48.170;17.138;2022-07-06T19:24:58;21.00;42.20
14875;DHT22;7529;48.170;17.138;2022-07-06T19:29:09;20.90;42.40
14875;DHT22;7529;48.170;17.138;2022-07-06T19:33:22;20.80;42.40
14875;DHT22;7529;48.170;17.138;2022-07-06T19:37:33;20.70;42.60
14875;DHT22;7529;48.170;17.138;2022-07-06T19:41:46;20.60;42.80
14875;DHT22;7529;48.170;17.138;2022-07-06T19:45:57;20.50;42.90
14875;DHT22;7529;48.170;17.138;2022-07-06T19:50:12;20.40;43.00
14875;DHT22;7529;48.170;17.138;2022-07-06T19:54:23;20.30;43.20
14875;DHT22;7529;48.170;17.138;2022-07-06T19:58:35;20.30;43.20
14875;DHT22;7529;48.170;17.138;2022-07-06T20:02:46;20.30;43.30
14875;DHT22;7529;48.170;17.138;2022-07-06T20:06:58;20.20;43.40
14875;DHT22;7529;48.170;17.138;2022-07-06T20:11:11;20.10;43.60
14875;DHT22;7529;48.170;17.138;2022-07-06T20:15:22;19.90;43.90
14875;DHT22;7529;48.170;17.138;2022-07-06T20:19:34;19.80;44.10
14875;DHT22;7529;48.170;17.138;2022-07-06T20:23:46;19.70;44.20
14875;DHT22;7529;48.170;17.138;2022-07-06T20:27:58;19.60;44.30
14875;DHT22;7529;48.170;17.138;2022-07-06T20:32:10;19.60;44.40
14875;DHT22;7529;48.170;17.138;2022-07-06T20:36:21;19.60;44.50
14875;DHT22;7529;48.170;17.138;2022-07-06T20:40:33;19.60;44.50
14875;DHT22;7529;48.170;17.138;2022-07-06T20:44:45;19.60;44.60
14875;DHT22;7529;48.170;17.138;2022-07-06T20:48:57;19.60;44.70
14875;DHT22;7529;48.170;17.138;2022-07-06T20:53:09;19.70;44.80
14875;DHT22;7529;48.170;17.138;2022-07-06T20:57:21;19.50;44.80
14875;DHT22;7529;48.170;17.138;2022-07-06T21:01:32;19.40;45.10
14875;DHT22;7529;48.170;17.138;2022-07-06T21:05:45;19.30;45.30
14875;DHT22;7529;48.170;17.138;2022-07-06T21:09:56;19.30;45.30
14875;DHT22;7529;48.170;17.138;2022-07-06T21:14:08;19.10;45.50
14875;DHT22;7529;48.170;17.138;2022-07-06T21:18:20;19.00;45.70
14875;DHT22;7529;48.170;17.138;2022-07-06T21:22:32;18.90;45.90
14875;DHT22;7529;48.170;17.138;2022-07-06T21:26:43;18.80;46.00
14875;DHT22;7529;48.170;17.138;2022-07-06T21:30:55;18.80;46.20
14875;DHT22;7529;48.170;17.138;2022-07-06T21:35:07;18.70;46.30
14875;DHT22;7529;48.170;17.138;2022-07-06T21:39:19;18.60;46.50
14875;DHT22;7529;48.170;17.138;2022-07-06T21:43:30;18.50;46.70
14875;DHT22;7529;48.170;17.138;2022-07-06T21:47:45;18.50;46.90
14875;DHT22;7529;48.170;17.138;2022-07-06T21:51:56;18.40;46.90
14875;DHT22;7529;48.170;17.138;2022-07-06T21:56:08;18.40;47.10
14875;DHT22;7529;48.170;17.138;2022-07-06T22:00:19;18.50;47.20
14875;DHT22;7529;48.170;17.138;2022-07-06T22:04:36;18.50;47.20
14875;DHT22;7529;48.170;17.138;2022-07-06T22:08:47;18.40;47.40
14875;DHT22;7529;48.170;17.138;2022-07-06T22:13:00;18.50;47.60
14875;DHT22;7529;48.170;17.138;2022-07-06T22:17:12;18.50;47.60
14875;DHT22;7529;48.170;17.138;2022-07-06T22:21:24;18.50;47.70
14875;DHT22;7529;48.170;17.138;2022-07-06T22:25:35;18.50;47.70
14875;DHT22;7529;48.170;17.138;2022-07-06T22:29:47;18.50;47.90
14875;DHT22;7529;48.170;17.138;2022-07-06T22:33:58;18.50;48.00
14875;DHT22;7529;48.170;17.138;2022-07-06T22:38:10;18.40;48.10
14875;DHT22;7529;48.170;17.138;2022-07-06T22:42:21;18.40;48.20
14875;DHT22;7529;48.170;17.138;2022-07-06T22:46:33;18.40;48.30
14875;DHT22;7529;48.170;17.138;2022-07-06T22:50:45;18.30;49.00
14875;DHT22;7529;48.170;17.138;2022-07-06T22:54:57;18.30;48.50
14875;DHT22;7529;48.170;17.138;2022-07-06T22:59:08;18.20;48.50
14875;DHT22;7529;48.170;17.138;2022-07-06T23:03:20;18.20;48.60
14875;DHT22;7529;48.170;17.138;2022-07-06T23:07:31;18.20;48.50
14875;DHT22;7529;48.170;17.138;2022-07-06T23:11:43;18.30;48.60
14875;DHT22;7529;48.170;17.138;2022-07-06T23:15:56;18.30;48.70
14875;DHT22;7529;48.170;17.138;2022-07-06T23:20:09;18.20;48.80
14875;DHT22;7529;48.170;17.138;2022-07-06T23:24:21;18.10;49.00
14875;DHT22;7529;48.170;17.138;2022-07-06T23:28:33;18.00;49.10
14875;DHT22;7529;48.170;17.138;2022-07-06T23:32:44;18.10;49.10
14875;DHT22;7529;48.170;17.138;2022-07-06T23:36:56;18.10;49.00
14875;DHT22;7529;48.170;17.138;2022-07-06T23:41:08;18.10;49.10
14875;DHT22;7529;48.170;17.138;2022-07-06T23:45:20;18.00;49.30
14875;DHT22;7529;48.170;17.138;2022-07-06T23:49:31;17.90;49.30
14875;DHT22;7529;48.170;17.138;2022-07-06T23:53:43;17.90;49.40
14875;DHT22;7529;48.170;17.138;2022-07-06T23:57:54;17.90;49.50
